sensor_id;sensor_type;location;lat;lon;timestamp;P1;durP1;ratioP1;P2;durP2;ratioP2
16928;SDS011;8581;47.334;11.190;2023-07-13T00:00:43;1.87;;;1.60;;
16928;SDS011;8581;47.334;11.190;2023-07-13T00:03:15;2.10;;;1.90;;
16928;SDS011;8581;47.334;11.190;2023-07-13T00:05:46;2.50;;;1.90;;
16928;SDS011;8581;47.334;11.190;2023-07-13T00:08:18;2.10;;;1.97;;
16928;SDS011;8581;47.334;11.190;2023-07-13T00:10:51;3.87;;;1.97;;
16928;SDS011;8581;47.334;11.190;2023-07-13T00:13:21;2.13;;;1.57;;
16928;SDS011;8581;47.334;11.190;2023-07-13T00:15:53;1.63;;;1.30;;
16928;SDS011;8581;47.334;11.190;2023-07-13T00:18:25;1.53;;;1.40;;
16928;SDS011;8581;47.334;11.190;2023-07-13T00:20:57;1.30;;;1.20;;
16928;SDS011;8581;47.334;11.190;2023-07-13T00:23:32;1.50;;;1.40;;
16928;SDS011;8581;47.334;11.190;2023-07-13T00:26:03;1.53;;;1.43;;
16928;SDS011;8581;47.334;11.190;2023-07-13T00:28:34;2.10;;;1.30;;
16928;SDS011;8581;47.334;11.190;2023-07-13T00:31:06;3.60;;;1.57;;
16928;SDS011;8581;47.334;11.190;2023-07-13T00:33:37;1.97;;;1.70;;
16928;SDS011;8581;47.334;11.190;2023-07-13T00:36:09;2.17;;;1.80;;
16928;SDS011;8581;47.334;11.190;2023-07-13T00:38:41;1.60;;;1.50;;
16928;SDS011;8581;47.334;11.190;2023-07-13T00:41:12;2.93;;;1.80;;
16928;SDS011;8581;47.334;11.190;2023-07-13T00:43:44;1.93;;;1.60;;
16928;SDS011;8581;47.334;11.190;2023-07-13T00:46:19;1.93;;;1.67;;
16928;SDS011;8581;47.334;11.190;2023-07-13T00:48:49;1.80;;;1.57;;
16928;SDS011;8581;47.334;11.190;2023-07-13T00:51:22;1.33;;;1.23;;
16928;SDS011;8581;47.334;11.190;2023-07-13T00:53:53;1.67;;;1.57;;
16928;SDS011;8581;47.334;11.190;2023-07-13T00:56:23;2.10;;;1.90;;
16928;SDS011;8581;47.334;11.190;2023-07-13T00:58:55;1.90;;;1.80;;
16928;SDS011;8581;47.334;11.190;2023-07-13T01:01:27;2.60;;;2.10;;
16928;SDS011;8581;47.334;11.190;2023-07-13T01:03:58;2.40;;;1.90;;
16928;SDS011;8581;47.334;11.190;2023-07-13T01:06:30;2.47;;;2.03;;
16928;SDS011;8581;47.334;11.190;2023-07-13T01:09:02;2.50;;;2.30;;
16928;SDS011;8581;47.334;11.190;2023-07-13T01:11:33;6.70;;;3.93;;
16928;SDS011;8581;47.334;11.190;2023-07-13T01:14:05;4.27;;;3.77;;
16928;SDS011;8581;47.334;11.190;2023-07-13T01:16:37;4.20;;;2.60;;
16928;SDS011;8581;47.334;11.190;2023-07-13T01:22:03;2.67;;;2.00;;
16928;SDS011;8581;47.334;11.190;2023-07-13T01:24:37;2.93;;;2.00;;
16928;SDS011;8581;47.334;11.190;2023-07-13T01:27:09;2.10;;;1.80;;
16928;SDS011;8581;47.334;11.190;2023-07-13T01:29:41;2.97;;;2.23;;
16928;SDS011;8581;47.334;11.190;2023-07-13T01:32:14;2.80;;;1.57;;
16928;SDS011;8581;47.334;11.190;2023-07-13T01:34:44;2.37;;;1.60;;
16928;SDS011;8581;47.334;11.190;2023-07-13T01:37:16;2.00;;;1.40;;
16928;SDS011;8581;47.334;11.190;2023-07-13T01:39:47;1.33;;;1.23;;
16928;SDS011;8581;47.334;11.190;2023-07-13T01:42:19;2.07;;;1.20;;
16928;SDS011;8581;47.334;11.190;2023-07-13T01:44:50;1.87;;;1.50;;
16928;SDS011;8581;47.334;11.190;2023-07-13T01:47:22;1.60;;;1.50;;
16928;SDS011;8581;47.334;11.190;2023-07-13T01:49:54;1.97;;;1.37;;
16928;SDS011;8581;47.334;11.190;2023-07-13T01:52:25;1.60;;;1.50;;
16928;SDS011;8581;47.334;11.190;2023-07-13T01:54:57;3.97;;;2.30;;
16928;SDS011;8581;47.334;11.190;2023-07-13T01:57:28;2.50;;;1.70;;
16928;SDS011;8581;47.334;11.190;2023-07-13T02:00:02;2.10;;;1.90;;
16928;SDS011;8581;47.334;11.190;2023-07-13T02:02:32;2.20;;;1.43;;
16928;SDS011;8581;47.334;11.190;2023-07-13T02:05:04;1.40;;;1.30;;
16928;SDS011;8581;47.334;11.190;2023-07-13T02:07:37;1.70;;;1.40;;
16928;SDS011;8581;47.334;11.190;2023-07-13T02:10:09;2.37;;;2.00;;
16928;SDS011;8581;47.334;11.190;2023-07-13T02:12:41;2.23;;;2.00;;
16928;SDS011;8581;47.334;11.190;2023-07-13T02:15:12;2.00;;;1.77;;
16928;SDS011;8581;47.334;11.190;2023-07-13T02:17:43;2.43;;;1.90;;
16928;SDS011;8581;47.334;11.190;2023-07-13T02:20:15;3.37;;;2.43;;
16928;SDS011;8581;47.334;11.190;2023-07-13T02:22:47;2.00;;;1.90;;
16928;SDS011;8581;47.334;11.190;2023-07-13T02:25:18;2.63;;;2.40;;
16928;SDS011;8581;47.334;11.190;2023-07-13T02:27:50;2.50;;;2.30;;
16928;SDS011;8581;47.334;11.190;2023-07-13T02:30:21;2.40;;;2.20;;
16928;SDS011;8581;47.334;11.190;2023-07-13T02:32:53;2.20;;;2.00;;
16928;SDS011;8581;47.334;11.190;2023-07-13T02:35:25;3.07;;;2.23;;
16928;SDS011;8581;47.334;11.190;2023-07-13T02:37:56;2.43;;;2.00;;
16928;SDS011;8581;47.334;11.190;2023-07-13T02:40:28;1.50;;;1.40;;
16928;SDS011;8581;47.334;11.190;2023-07-13T02:43:00;1.57;;;1.47;;
16928;SDS011;8581;47.334;11.190;2023-07-13T02:45:31;2.20;;;1.30;;
16928;SDS011;8581;47.334;11.190;2023-07-13T02:48:03;1.50;;;1.40;;
16928;SDS011;8581;47.334;11.190;2023-07-13T02:50:35;3.27;;;1.70;;
16928;SDS011;8581;47.334;11.190;2023-07-13T02:53:06;2.33;;;2.00;;
16928;SDS011;8581;47.334;11.190;2023-07-13T02:55:38;2.60;;;2.40;;
16928;SDS011;8581;47.334;11.190;2023-07-13T02:58:09;2.30;;;2.10;;
16928;SDS011;8581;47.334;11.190;2023-07-13T03:00:41;2.33;;;1.93;;
16928;SDS011;8581;47.334;11.190;2023-07-13T03:03:13;1.80;;;1.70;;
16928;SDS011;8581;47.334;11.190;2023-07-13T03:05:44;2.87;;;1.40;;
16928;SDS011;8581;47.334;11.190;2023-07-13T03:08:16;1.60;;;1.50;;
16928;SDS011;8581;47.334;11.190;2023-07-13T03:10:47;1.47;;;1.37;;
16928;SDS011;8581;47.334;11.190;2023-07-13T03:13:19;2.03;;;1.20;;
16928;SDS011;8581;47.334;11.190;2023-07-13T03:15:51;1.17;;;1.07;;
16928;SDS011;8581;47.334;11.190;2023-07-13T03:18:22;2.40;;;1.17;;
16928;SDS011;8581;47.334;11.190;2023-07-13T03:20:54;1.10;;;1.10;;
16928;SDS011;8581;47.334;11.190;2023-07-13T03:23:25;2.13;;;1.30;;
16928;SDS011;8581;47.334;11.190;2023-07-13T03:26:09;4.73;;;3.47;;
16928;SDS011;8581;47.334;11.190;2023-07-13T03:28:42;8.97;;;7.43;;
16928;SDS011;8581;47.334;11.190;2023-07-13T03:31:16;27.83;;;25.73;;
16928;SDS011;8581;47.334;11.190;2023-07-13T03:33:47;29.50;;;26.70;;
16928;SDS011;8581;47.334;11.190;2023-07-13T03:36:19;8.83;;;7.23;;
16928;SDS011;8581;47.334;11.190;2023-07-13T03:38:52;7.70;;;7.00;;
16928;SDS011;8581;47.334;11.190;2023-07-13T03:41:22;11.00;;;10.10;;
16928;SDS011;8581;47.334;11.190;2023-07-13T03:43:53;39.07;;;35.47;;
16928;SDS011;8581;47.334;11.190;2023-07-13T03:46:25;20.60;;;18.70;;
16928;SDS011;8581;47.334;11.190;2023-07-13T03:48:56;14.13;;;12.70;;
16928;SDS011;8581;47.334;11.190;2023-07-13T03:51:28;5.70;;;5.20;;
16928;SDS011;8581;47.334;11.190;2023-07-13T03:54:00;3.67;;;2.77;;
16928;SDS011;8581;47.334;11.190;2023-07-13T03:56:31;2.90;;;2.70;;
16928;SDS011;8581;47.334;11.190;2023-07-13T03:59:03;4.67;;;3.03;;
16928;SDS011;8581;47.334;11.190;2023-07-13T04:01:34;2.90;;;2.70;;
16928;SDS011;8581;47.334;11.190;2023-07-13T04:04:06;2.90;;;2.70;;
16928;SDS011;8581;47.334;11.190;2023-07-13T04:06:38;2.40;;;2.27;;
16928;SDS011;8581;47.334;11.190;2023-07-13T04:09:09;2.60;;;2.40;;
16928;SDS011;8581;47.334;11.190;2023-07-13T04:11:41;2.60;;;2.10;;
16928;SDS011;8581;47.334;11.190;2023-07-13T04:14:12;3.80;;;2.50;;
16928;SDS011;8581;47.334;11.190;2023-07-13T04:16:44;3.23;;;2.30;;
16928;SDS011;8581;47.334;11.190;2023-07-13T04:19:16;2.37;;;2.17;;
16928;SDS011;8581;47.334;11.190;2023-07-13T04:21:47;2.47;;;2.27;;
16928;SDS011;8581;47.334;11.190;2023-07-13T04:24:19;3.73;;;2.90;;
16928;SDS011;8581;47.334;11.190;2023-07-13T04:26:50;2.80;;;2.40;;
16928;SDS011;8581;47.334;11.190;2023-07-13T04:29:22;2.50;;;2.30;;
16928;SDS011;8581;47.334;11.190;2023-07-13T04:31:53;2.97;;;2.50;;
16928;SDS011;8581;47.334;11.190;2023-07-13T04:34:25;3.47;;;2.00;;
16928;SDS011;8581;47.334;11.190;2023-07-13T04:36:57;2.60;;;2.40;;
16928;SDS011;8581;47.334;11.190;2023-07-13T04:39:28;2.20;;;2.00;;
16928;SDS011;8581;47.334;11.190;2023-07-13T04:42:00;4.23;;;2.50;;
16928;SDS011;8581;47.334;11.190;2023-07-13T04:44:31;2.87;;;2.67;;
16928;SDS011;8581;47.334;11.190;2023-07-13T04:47:03;2.93;;;2.63;;
16928;SDS011;8581;47.334;11.190;2023-07-13T04:49:35;4.33;;;2.40;;
16928;SDS011;8581;47.334;11.190;2023-07-13T04:52:06;3.33;;;2.30;;
16928;SDS011;8581;47.334;11.190;2023-07-13T04:54:38;2.93;;;2.43;;
16928;SDS011;8581;47.334;11.190;2023-07-13T04:57:10;7.43;;;3.10;;
16928;SDS011;8581;47.334;11.190;2023-07-13T04:59:41;6.93;;;3.07;;
16928;SDS011;8581;47.334;11.190;2023-07-13T05:02:13;11.70;;;3.10;;
16928;SDS011;8581;47.334;11.190;2023-07-13T05:04:46;4.90;;;2.43;;
16928;SDS011;8581;47.334;11.190;2023-07-13T05:07:17;2.03;;;1.83;;
16928;SDS011;8581;47.334;11.190;2023-07-13T05:09:49;7.17;;;2.60;;
16928;SDS011;8581;47.334;11.190;2023-07-13T05:12:20;3.33;;;2.50;;
16928;SDS011;8581;47.334;11.190;2023-07-13T05:14:52;1.90;;;1.80;;
16928;SDS011;8581;47.334;11.190;2023-07-13T05:17:23;2.43;;;2.23;;
16928;SDS011;8581;47.334;11.190;2023-07-13T05:19:55;2.57;;;2.30;;
16928;SDS011;8581;47.334;11.190;2023-07-13T05:22:26;1.93;;;1.83;;
16928;SDS011;8581;47.334;11.190;2023-07-13T05:24:58;2.00;;;1.80;;
16928;SDS011;8581;47.334;11.190;2023-07-13T05:27:30;1.70;;;1.60;;
16928;SDS011;8581;47.334;11.190;2023-07-13T05:30:02;2.10;;;1.90;;
16928;SDS011;8581;47.334;11.190;2023-07-13T05:32:34;2.17;;;1.97;;
16928;SDS011;8581;47.334;11.190;2023-07-13T05:35:06;2.90;;;1.90;;
16928;SDS011;8581;47.334;11.190;2023-07-13T05:37:38;2.00;;;1.90;;
16928;SDS011;8581;47.334;11.190;2023-07-13T05:40:10;2.23;;;2.03;;
16928;SDS011;8581;47.334;11.190;2023-07-13T05:42:42;2.50;;;1.80;;
16928;SDS011;8581;47.334;11.190;2023-07-13T05:45:13;1.70;;;1.60;;
16928;SDS011;8581;47.334;11.190;2023-07-13T05:47:45;1.63;;;1.53;;
16928;SDS011;8581;47.334;11.190;2023-07-13T05:50:16;2.90;;;1.70;;
16928;SDS011;8581;47.334;11.190;2023-07-13T05:52:48;1.60;;;1.50;;
16928;SDS011;8581;47.334;11.190;2023-07-13T05:55:20;1.70;;;1.60;;
16928;SDS011;8581;47.334;11.190;2023-07-13T05:57:51;2.17;;;1.60;;
16928;SDS011;8581;47.334;11.190;2023-07-13T06:00:23;1.33;;;1.23;;
16928;SDS011;8581;47.334;11.190;2023-07-13T06:02:55;1.50;;;1.40;;
16928;SDS011;8581;47.334;11.190;2023-07-13T06:05:26;3.90;;;1.60;;
16928;SDS011;8581;47.334;11.190;2023-07-13T06:07:58;1.87;;;1.50;;
16928;SDS011;8581;47.334;11.190;2023-07-13T06:10:32;2.20;;;1.47;;
16928;SDS011;8581;47.334;11.190;2023-07-13T06:13:02;1.70;;;1.60;;
16928;SDS011;8581;47.334;11.190;2023-07-13T06:15:34;2.73;;;1.50;;
16928;SDS011;8581;47.334;11.190;2023-07-13T06:18:05;1.57;;;1.37;;
16928;SDS011;8581;47.334;11.190;2023-07-13T06:20:37;2.83;;;1.47;;
16928;SDS011;8581;47.334;11.190;2023-07-13T06:23:08;1.90;;;1.80;;
16928;SDS011;8581;47.334;11.190;2023-07-13T06:25:40;3.53;;;1.87;;
16928;SDS011;8581;47.334;11.190;2023-07-13T06:28:11;1.60;;;1.50;;
16928;SDS011;8581;47.334;11.190;2023-07-13T06:30:43;2.10;;;1.70;;
16928;SDS011;8581;47.334;11.190;2023-07-13T06:33:15;2.33;;;1.57;;
16928;SDS011;8581;47.334;11.190;2023-07-13T06:35:46;1.70;;;1.60;;
16928;SDS011;8581;47.334;11.190;2023-07-13T06:38:18;1.50;;;1.40;;
16928;SDS011;8581;47.334;11.190;2023-07-13T06:40:49;1.60;;;0.97;;
16928;SDS011;8581;47.334;11.190;2023-07-13T06:43:21;1.43;;;1.17;;
16928;SDS011;8581;47.334;11.190;2023-07-13T06:45:54;1.33;;;1.23;;
16928;SDS011;8581;47.334;11.190;2023-07-13T06:48:24;1.27;;;1.10;;
16928;SDS011;8581;47.334;11.190;2023-07-13T06:50:56;3.23;;;1.60;;
16928;SDS011;8581;47.334;11.190;2023-07-13T06:53:27;1.30;;;1.20;;
16928;SDS011;8581;47.334;11.190;2023-07-13T06:55:59;0.90;;;0.90;;
16928;SDS011;8581;47.334;11.190;2023-07-13T06:58:31;1.27;;;1.13;;
16928;SDS011;8581;47.334;11.190;2023-07-13T07:01:03;2.30;;;1.10;;
16928;SDS011;8581;47.334;11.190;2023-07-13T07:03:34;1.00;;;1.00;;
16928;SDS011;8581;47.334;11.190;2023-07-13T07:06:15;1.63;;;1.00;;
16928;SDS011;8581;47.334;11.190;2023-07-13T07:08:47;1.27;;;1.07;;
16928;SDS011;8581;47.334;11.190;2023-07-13T07:11:20;1.77;;;1.10;;
16928;SDS011;8581;47.334;11.190;2023-07-13T07:13:51;1.35;;;0.90;;
16928;SDS011;8581;47.334;11.190;2023-07-13T07:16:23;1.83;;;1.10;;
16928;SDS011;8581;47.334;11.190;2023-07-13T07:18:53;1.63;;;1.00;;
16928;SDS011;8581;47.334;11.190;2023-07-13T07:21:25;1.80;;;1.17;;
16928;SDS011;8581;47.334;11.190;2023-07-13T07:23:57;1.00;;;1.00;;
16928;SDS011;8581;47.334;11.190;2023-07-13T07:26:28;2.17;;;1.30;;
16928;SDS011;8581;47.334;11.190;2023-07-13T07:29:00;1.00;;;1.00;;
16928;SDS011;8581;47.334;11.190;2023-07-13T07:31:32;1.20;;;1.10;;
16928;SDS011;8581;47.334;11.190;2023-07-13T07:34:04;1.50;;;1.07;;
16928;SDS011;8581;47.334;11.190;2023-07-13T07:36:42;1.20;;;1.10;;
16928;SDS011;8581;47.334;11.190;2023-07-13T07:39:13;2.47;;;1.20;;
16928;SDS011;8581;47.334;11.190;2023-07-13T07:41:45;1.37;;;1.27;;
16928;SDS011;8581;47.334;11.190;2023-07-13T07:44:17;1.15;;;1.00;;
16928;SDS011;8581;47.334;11.190;2023-07-13T07:46:48;2.65;;;1.10;;
16928;SDS011;8581;47.334;11.190;2023-07-13T07:49:20;1.87;;;1.20;;
16928;SDS011;8581;47.334;11.190;2023-07-13T07:51:51;1.65;;;1.00;;
16928;SDS011;8581;47.334;11.190;2023-07-13T07:54:23;1.10;;;1.10;;
16928;SDS011;8581;47.334;11.190;2023-07-13T07:56:54;1.10;;;1.10;;
16928;SDS011;8581;47.334;11.190;2023-07-13T07:59:26;1.57;;;1.10;;
16928;SDS011;8581;47.334;11.190;2023-07-13T08:01:58;2.58;;;1.20;;
16928;SDS011;8581;47.334;11.190;2023-07-13T08:04:29;1.40;;;1.30;;
16928;SDS011;8581;47.334;11.190;2023-07-13T08:07:01;1.92;;;1.50;;
16928;SDS011;8581;47.334;11.190;2023-07-13T08:09:33;1.22;;;1.12;;
16928;SDS011;8581;47.334;11.190;2023-07-13T08:12:05;1.40;;;1.30;;
16928;SDS011;8581;47.334;11.190;2023-07-13T08:14:37;1.07;;;1.07;;
16928;SDS011;8581;47.334;11.190;2023-07-13T08:17:09;1.62;;;1.20;;
16928;SDS011;8581;47.334;11.190;2023-07-13T08:19:41;1.77;;;0.98;;
16928;SDS011;8581;47.334;11.190;2023-07-13T08:22:13;1.90;;;1.27;;
16928;SDS011;8581;47.334;11.190;2023-07-13T08:24:45;1.00;;;1.00;;
16928;SDS011;8581;47.334;11.190;2023-07-13T08:27:17;1.30;;;1.20;;
16928;SDS011;8581;47.334;11.190;2023-07-13T08:29:49;1.42;;;1.32;;
16928;SDS011;8581;47.334;11.190;2023-07-13T08:32:21;1.30;;;1.20;;
16928;SDS011;8581;47.334;11.190;2023-07-13T08:34:52;1.37;;;1.15;;
16928;SDS011;8581;47.334;11.190;2023-07-13T08:37:24;1.55;;;1.27;;
16928;SDS011;8581;47.334;11.190;2023-07-13T08:40:00;1.62;;;1.32;;
16928;SDS011;8581;47.334;11.190;2023-07-13T08:42:32;1.45;;;1.20;;
16928;SDS011;8581;47.334;11.190;2023-07-13T08:45:25;1.30;;;1.20;;
16928;SDS011;8581;47.334;11.190;2023-07-13T08:48:01;1.20;;;1.05;;
16928;SDS011;8581;47.334;11.190;2023-07-13T08:50:34;2.30;;;1.50;;
16928;SDS011;8581;47.334;11.190;2023-07-13T08:53:05;4.20;;;1.47;;
16928;SDS011;8581;47.334;11.190;2023-07-13T08:55:37;2.52;;;1.50;;
16928;SDS011;8581;47.334;11.190;2023-07-13T08:58:11;1.50;;;1.40;;
16928;SDS011;8581;47.334;11.190;2023-07-13T09:00:52;1.50;;;1.40;;
16928;SDS011;8581;47.334;11.190;2023-07-13T09:03:22;2.42;;;1.90;;
16928;SDS011;8581;47.334;11.190;2023-07-13T09:05:55;2.00;;;1.80;;
16928;SDS011;8581;47.334;11.190;2023-07-13T09:08:30;2.12;;;1.80;;
16928;SDS011;8581;47.334;11.190;2023-07-13T09:11:29;2.12;;;1.60;;
16928;SDS011;8581;47.334;11.190;2023-07-13T09:14:13;4.17;;;1.90;;
16928;SDS011;8581;47.334;11.190;2023-07-13T09:16:40;2.20;;;1.75;;
16928;SDS011;8581;47.334;11.190;2023-07-13T09:19:14;2.12;;;1.90;;
16928;SDS011;8581;47.334;11.190;2023-07-13T09:21:44;2.27;;;1.80;;
16928;SDS011;8581;47.334;11.190;2023-07-13T09:25:23;2.85;;;2.12;;
16928;SDS011;8581;47.334;11.190;2023-07-13T09:27:12;2.17;;;1.98;;
16928;SDS011;8581;47.334;11.190;2023-07-13T09:29:42;1.87;;;1.77;;
16928;SDS011;8581;47.334;11.190;2023-07-13T09:32:13;1.70;;;1.60;;
16928;SDS011;8581;47.334;11.190;2023-07-13T09:34:49;2.17;;;1.95;;
16928;SDS011;8581;47.334;11.190;2023-07-13T09:37:27;2.08;;;1.90;;
16928;SDS011;8581;47.334;11.190;2023-07-13T09:39:58;1.72;;;1.60;;
16928;SDS011;8581;47.334;11.190;2023-07-13T09:42:31;1.98;;;1.52;;
16928;SDS011;8581;47.334;11.190;2023-07-13T09:45:03;1.70;;;1.10;;
16928;SDS011;8581;47.334;11.190;2023-07-13T09:47:38;1.30;;;1.20;;
16928;SDS011;8581;47.334;11.190;2023-07-13T09:50:10;0.93;;;0.88;;
16928;SDS011;8581;47.334;11.190;2023-07-13T09:52:42;1.50;;;1.10;;
16928;SDS011;8581;47.334;11.190;2023-07-13T09:57:54;1.35;;;0.55;;
16928;SDS011;8581;47.334;11.190;2023-07-13T10:00:27;0.70;;;0.70;;
16928;SDS011;8581;47.334;11.190;2023-07-13T10:03:09;0.70;;;0.70;;
16928;SDS011;8581;47.334;11.190;2023-07-13T10:05:45;0.60;;;0.60;;
16928;SDS011;8581;47.334;11.190;2023-07-13T10:08:18;17.45;;;15.65;;
16928;SDS011;8581;47.334;11.190;2023-07-13T10:10:53;0.40;;;0.40;;
16928;SDS011;8581;47.334;11.190;2023-07-13T10:13:26;0.53;;;0.35;;
16928;SDS011;8581;47.334;11.190;2023-07-13T10:15:57;0.47;;;0.47;;
16928;SDS011;8581;47.334;11.190;2023-07-13T10:18:29;0.50;;;0.50;;
16928;SDS011;8581;47.334;11.190;2023-07-13T10:21:08;0.55;;;0.55;;
16928;SDS011;8581;47.334;11.190;2023-07-13T10:23:50;0.50;;;0.50;;
16928;SDS011;8581;47.334;11.190;2023-07-13T10:26:25;0.65;;;0.50;;
16928;SDS011;8581;47.334;11.190;2023-07-13T10:28:56;0.40;;;0.40;;
16928;SDS011;8581;47.334;11.190;2023-07-13T10:31:28;0.40;;;0.40;;
16928;SDS011;8581;47.334;11.190;2023-07-13T10:33:59;0.40;;;0.40;;
16928;SDS011;8581;47.334;11.190;2023-07-13T10:36:33;0.30;;;0.30;;
16928;SDS011;8581;47.334;11.190;2023-07-13T10:39:04;1.95;;;0.40;;
16928;SDS011;8581;47.334;11.190;2023-07-13T10:41:38;1.10;;;0.42;;
16928;SDS011;8581;47.334;11.190;2023-07-13T10:44:11;1.20;;;0.53;;
16928;SDS011;8581;47.334;11.190;2023-07-13T10:46:39;0.50;;;0.50;;
16928;SDS011;8581;47.334;11.190;2023-07-13T10:49:10;0.62;;;0.40;;
16928;SDS011;8581;47.334;11.190;2023-07-13T10:51:42;0.40;;;0.40;;
16928;SDS011;8581;47.334;11.190;2023-07-13T10:54:16;0.50;;;0.50;;
16928;SDS011;8581;47.334;11.190;2023-07-13T10:56:50;0.45;;;0.40;;
16928;SDS011;8581;47.334;11.190;2023-07-13T10:59:26;0.30;;;0.30;;
16928;SDS011;8581;47.334;11.190;2023-07-13T11:01:58;1.75;;;0.40;;
16928;SDS011;8581;47.334;11.190;2023-07-13T11:04:29;0.37;;;0.37;;
16928;SDS011;8581;47.334;11.190;2023-07-13T11:07:09;0.45;;;0.40;;
16928;SDS011;8581;47.334;11.190;2023-07-13T11:09:35;0.30;;;0.30;;
16928;SDS011;8581;47.334;11.190;2023-07-13T11:12:08;0.50;;;0.40;;
16928;SDS011;8581;47.334;11.190;2023-07-13T11:15:03;0.47;;;0.47;;
16928;SDS011;8581;47.334;11.190;2023-07-13T11:22:45;0.30;;;0.30;;
16928;SDS011;8581;47.334;11.190;2023-07-13T11:25:27;0.50;;;0.50;;
16928;SDS011;8581;47.334;11.190;2023-07-13T11:28:05;0.40;;;0.40;;
16928;SDS011;8581;47.334;11.190;2023-07-13T11:30:39;0.42;;;0.42;;
16928;SDS011;8581;47.334;11.190;2023-07-13T11:33:12;0.40;;;0.40;;
16928;SDS011;8581;47.334;11.190;2023-07-13T11:35:47;0.40;;;0.40;;
16928;SDS011;8581;47.334;11.190;2023-07-13T11:38:24;0.40;;;0.40;;
16928;SDS011;8581;47.334;11.190;2023-07-13T11:40:54;0.40;;;0.40;;
16928;SDS011;8581;47.334;11.190;2023-07-13T11:43:25;0.50;;;0.50;;
16928;SDS011;8581;47.334;11.190;2023-07-13T11:45:57;0.47;;;0.47;;
16928;SDS011;8581;47.334;11.190;2023-07-13T11:48:29;1.75;;;0.40;;
16928;SDS011;8581;47.334;11.190;2023-07-13T11:51:01;0.50;;;0.50;;
16928;SDS011;8581;47.334;11.190;2023-07-13T11:53:38;0.50;;;0.50;;
16928;SDS011;8581;47.334;11.190;2023-07-13T11:56:08;0.40;;;0.40;;
16928;SDS011;8581;47.334;11.190;2023-07-13T11:58:40;0.40;;;0.40;;
16928;SDS011;8581;47.334;11.190;2023-07-13T12:01:16;0.40;;;0.40;;
16928;SDS011;8581;47.334;11.190;2023-07-13T12:03:45;0.50;;;0.50;;
16928;SDS011;8581;47.334;11.190;2023-07-13T12:06:24;0.50;;;0.50;;
16928;SDS011;8581;47.334;11.190;2023-07-13T12:09:00;0.40;;;0.40;;
16928;SDS011;8581;47.334;11.190;2023-07-13T12:11:30;0.65;;;0.55;;
16928;SDS011;8581;47.334;11.190;2023-07-13T12:14:02;0.50;;;0.50;;
16928;SDS011;8581;47.334;11.190;2023-07-13T12:16:33;0.50;;;0.50;;
16928;SDS011;8581;47.334;11.190;2023-07-13T12:19:09;0.40;;;0.40;;
16928;SDS011;8581;47.334;11.190;2023-07-13T12:21:38;0.45;;;0.45;;
16928;SDS011;8581;47.334;11.190;2023-07-13T12:24:14;0.40;;;0.40;;
16928;SDS011;8581;47.334;11.190;2023-07-13T12:26:48;1.50;;;0.60;;
16928;SDS011;8581;47.334;11.190;2023-07-13T12:29:17;0.60;;;0.60;;
16928;SDS011;8581;47.334;11.190;2023-07-13T12:31:48;0.45;;;0.40;;
16928;SDS011;8581;47.334;11.190;2023-07-13T12:34:21;0.47;;;0.47;;
16928;SDS011;8581;47.334;11.190;2023-07-13T12:36:52;0.62;;;0.50;;
16928;SDS011;8581;47.334;11.190;2023-07-13T12:39:30;0.50;;;0.50;;
16928;SDS011;8581;47.334;11.190;2023-07-13T12:42:24;0.55;;;0.50;;
16928;SDS011;8581;47.334;11.190;2023-07-13T12:44:57;0.50;;;0.50;;
16928;SDS011;8581;47.334;11.190;2023-07-13T12:47:27;0.62;;;0.62;;
16928;SDS011;8581;47.334;11.190;2023-07-13T12:49:59;0.55;;;0.55;;
16928;SDS011;8581;47.334;11.190;2023-07-13T12:52:32;0.50;;;0.50;;
16928;SDS011;8581;47.334;11.190;2023-07-13T12:55:05;1.15;;;0.70;;
16928;SDS011;8581;47.334;11.190;2023-07-13T12:57:39;0.98;;;0.60;;
16928;SDS011;8581;47.334;11.190;2023-07-13T13:00:27;1.10;;;1.00;;
16928;SDS011;8581;47.334;11.190;2023-07-13T13:02:57;2.17;;;1.20;;
16928;SDS011;8581;47.334;11.190;2023-07-13T13:05:32;1.40;;;1.30;;
16928;SDS011;8581;47.334;11.190;2023-07-13T13:08:04;0.60;;;0.60;;
16928;SDS011;8581;47.334;11.190;2023-07-13T13:10:35;2.42;;;1.22;;
16928;SDS011;8581;47.334;11.190;2023-07-13T13:13:07;1.70;;;1.60;;
16928;SDS011;8581;47.334;11.190;2023-07-13T13:15:39;1.30;;;1.20;;
16928;SDS011;8581;47.334;11.190;2023-07-13T13:18:18;0.90;;;0.80;;
16928;SDS011;8581;47.334;11.190;2023-07-13T13:20:50;3.05;;;1.72;;
16928;SDS011;8581;47.334;11.190;2023-07-13T13:23:23;1.25;;;1.05;;
16928;SDS011;8581;47.334;11.190;2023-07-13T13:25:54;1.10;;;1.10;;
16928;SDS011;8581;47.334;11.190;2023-07-13T13:28:26;0.60;;;0.60;;
16928;SDS011;8581;47.334;11.190;2023-07-13T13:30:57;0.70;;;0.70;;
16928;SDS011;8581;47.334;11.190;2023-07-13T13:33:29;0.70;;;0.62;;
16928;SDS011;8581;47.334;11.190;2023-07-13T13:36:01;0.55;;;0.55;;
16928;SDS011;8581;47.334;11.190;2023-07-13T13:38:32;0.60;;;0.60;;
16928;SDS011;8581;47.334;11.190;2023-07-13T13:41:04;1.00;;;0.70;;
16928;SDS011;8581;47.334;11.190;2023-07-13T13:43:35;0.70;;;0.70;;
16928;SDS011;8581;47.334;11.190;2023-07-13T13:46:13;1.57;;;0.62;;
16928;SDS011;8581;47.334;11.190;2023-07-13T13:48:43;1.47;;;0.70;;
16928;SDS011;8581;47.334;11.190;2023-07-13T13:51:15;0.70;;;0.70;;
16928;SDS011;8581;47.334;11.190;2023-07-13T13:53:46;0.50;;;0.50;;
16928;SDS011;8581;47.334;11.190;2023-07-13T13:56:18;2.08;;;0.72;;
16928;SDS011;8581;47.334;11.190;2023-07-13T13:58:49;0.80;;;0.80;;
16928;SDS011;8581;47.334;11.190;2023-07-13T14:01:21;1.80;;;0.70;;
16928;SDS011;8581;47.334;11.190;2023-07-13T14:03:52;0.70;;;0.70;;
16928;SDS011;8581;47.334;11.190;2023-07-13T14:06:24;0.65;;;0.65;;
16928;SDS011;8581;47.334;11.190;2023-07-13T14:08:55;1.20;;;0.90;;
16928;SDS011;8581;47.334;11.190;2023-07-13T14:11:27;0.88;;;0.80;;
16928;SDS011;8581;47.334;11.190;2023-07-13T14:13:59;0.90;;;0.90;;
16928;SDS011;8581;47.334;11.190;2023-07-13T14:16:30;1.27;;;0.80;;
16928;SDS011;8581;47.334;11.190;2023-07-13T14:19:02;1.02;;;0.93;;
16928;SDS011;8581;47.334;11.190;2023-07-13T14:21:33;0.82;;;0.80;;
16928;SDS011;8581;47.334;11.190;2023-07-13T14:24:05;1.02;;;0.90;;
16928;SDS011;8581;47.334;11.190;2023-07-13T14:26:37;0.80;;;0.80;;
16928;SDS011;8581;47.334;11.190;2023-07-13T14:29:12;1.30;;;0.80;;
16928;SDS011;8581;47.334;11.190;2023-07-13T14:31:43;0.82;;;0.82;;
16928;SDS011;8581;47.334;11.190;2023-07-13T14:34:14;2.12;;;0.80;;
16928;SDS011;8581;47.334;11.190;2023-07-13T14:36:47;0.85;;;0.85;;
16928;SDS011;8581;47.334;11.190;2023-07-13T14:39:20;1.00;;;0.90;;
16928;SDS011;8581;47.334;11.190;2023-07-13T14:41:52;0.85;;;0.85;;
16928;SDS011;8581;47.334;11.190;2023-07-13T14:44:25;1.80;;;0.85;;
16928;SDS011;8581;47.334;11.190;2023-07-13T14:46:56;0.70;;;0.70;;
16928;SDS011;8581;47.334;11.190;2023-07-13T14:49:30;1.05;;;0.88;;
16928;SDS011;8581;47.334;11.190;2023-07-13T14:52:11;0.88;;;0.85;;
16928;SDS011;8581;47.334;11.190;2023-07-13T14:54:41;1.35;;;0.88;;
16928;SDS011;8581;47.334;11.190;2023-07-13T14:57:14;0.82;;;0.82;;
16928;SDS011;8581;47.334;11.190;2023-07-13T14:59:45;2.95;;;0.70;;
16928;SDS011;8581;47.334;11.190;2023-07-13T15:02:17;0.80;;;0.80;;
16928;SDS011;8581;47.334;11.190;2023-07-13T15:04:49;1.07;;;0.98;;
16928;SDS011;8581;47.334;11.190;2023-07-13T15:07:20;0.68;;;0.68;;
16928;SDS011;8581;47.334;11.190;2023-07-13T15:09:52;0.85;;;0.82;;
16928;SDS011;8581;47.334;11.190;2023-07-13T15:12:23;0.90;;;0.90;;
16928;SDS011;8581;47.334;11.190;2023-07-13T15:14:55;0.98;;;0.80;;
16928;SDS011;8581;47.334;11.190;2023-07-13T15:17:31;0.70;;;0.70;;
16928;SDS011;8581;47.334;11.190;2023-07-13T15:19:59;1.42;;;1.00;;
16928;SDS011;8581;47.334;11.190;2023-07-13T15:22:31;1.77;;;0.88;;
16928;SDS011;8581;47.334;11.190;2023-07-13T15:25:02;2.30;;;1.10;;
16928;SDS011;8581;47.334;11.190;2023-07-13T15:27:34;1.42;;;0.95;;
16928;SDS011;8581;47.334;11.190;2023-07-13T15:30:06;1.50;;;0.90;;